Página principal
METAR-TAF:

METAR-TAF

Aeroportos :

Aeroporto de Madrid-Barajas

Madrid, Espanha

latitude: 40-27N, longitude: 003-33W, altura: 609 m

Observação actual do tempo

O boletim foi feito há 18 minutos, às 11:00 UTC
Vento 5 kt de sudeste
Temperatura 27°C
Humidade 51%
Pressão 1022 hPa
Visibilidade 10 km ou mais
Poucas nuvensa uma altura de 5000 ft

METAR: LEMD 191100Z 13005KT 9999 FEW050 27/16 Q1022 NOSIG

Hora: 13:18 (11:18 UTC)

Previsão

O boletim foi feito há 6 horas e 18 minutos, às 05:00 UTC
Previsão válida de 19 às 06 UTC a 20 às 12 UTC
Vento 5 kt com direcção variável
Visibilidade 10 km ou mais
Poucas nuvensa uma altura de 3000 ft
Probabilidade 30% :
Temporariamente
de 19 às 15 UTC a 19 às 20 UTC
Poucas nuvensa uma altura de 4500 ft, Cumulus congestus.
Probabilidade 30% :
Temporariamente
de 20 às 00 UTC a 20 às 06 UTC
Vento 10 kt de nordeste

TAF: LEMD 190500Z 1906/2012 VRB05KT 9999 FEW030 TX33/1916Z TN18/2006Z PROB30 TEMPO 1915/1920 FEW045TCU PROB30 TEMPO 2000/2006 04010KT

Observações e previsões do tempo de mais de 4000 aeroportos (mensagens METAR e TAF).

As estações disponíveis são os pontos amarelos e vermelhos sobre o mapa.

Mova o rato sobre o mapa para ver o nome da estação.

Depois clique no ponto para visualizar as observações e previsões meteorológicas.

Para alterar o mapa : clique nos botões verdes com uma cruz preta para aumentar o zoom; no botão verde com uma pitada de zoom; ou nas setas verdes para mapas adjacentes.


METAR-TAF: